ADDS METAR Data INFO
IDs: Format: Raw Decoded Include TAF

Data at: 0919 UTC 13 Dec 2017

KAFN 130852Z AUTO 25006KT 10SM OVC038 M07/M10 A2924 RMK AO2 SLP920 T10671100 50008
KAFN 130752Z AUTO 27009G17KT 10SM FEW016 BKN033 M06/M09 A2925 RMK AO2 SLP923 T10611094
KAFN 130742Z AUTO 27003KT 10SM SCT016 BKN032 M06/M08 A2926 RMK AO2 T10611083
KAFN 130652Z AUTO 27010G17KT 240V310 10SM OVC015 M04/M07 A2925 RMK AO2 SLP921 T10441067
KAFN 130605Z AUTO 26008KT 10SM BKN012 OVC019 M03/M04 A2922 RMK AO2 T10281044
KAFN 130552Z AUTO 26007KT 220V290 10SM SCT016 BKN023 M03/M04 A2922 RMK AO2 SLP909 60000 T10281044 10006 21028 58024
KAFN 130545Z AUTO VRB06KT 10SM SCT018 BKN023 M02/M05 A2922 RMK AO2 T10221050
KAFN 130452Z AUTO 29008KT 10SM FEW038 BKN060 BKN095 M02/M05 A2926 RMK AO2 SLP924 T10221050 400061028
KAFN 130416Z AUTO 29007KT 10SM SCT018 OVC060 M02/M04 A2924 RMK AO2 PRESFR T10171039
KAFN 130352Z AUTO 10SM BKN018 OVC041 M01/M03 A2928 RMK AO2 SLP930 T10111033
KAFN 130336Z AUTO VRB06G18KT 10SM OVC016 M01/M03 A2927 RMK AO2 T10111028
KAFN 130304Z AUTO 29006KT 10SM BKN014 OVC022 00/M02 A2930 RMK AO2 T00001017
KAFN 130252Z AUTO 00000KT 10SM BKN019 BKN024 OVC040 01/M01 A2929 RMK AO2 PRESRR SLP934 60000 T00061011 55008
KAFN 130152Z AUTO 00000KT 10SM BKN017 OVC023 M02/M02 A2928 RMK AO2 SLP932 T10171022
KAFN 130121Z AUTO 00000KT 10SM SCT006 BKN020 OVC040 M02/M02 A2930 RMK AO2 T10171022
KAFN 130052Z AUTO 00000KT 10SM BKN007 BKN040 OVC047 M02/M02 A2930 RMK AO2 SNE29 SLP939 P0000 T10171022
KAFN 130030Z AUTO 00000KT 9SM BKN007 OVC036 M02/M02 A2931 RMK AO2 SNE29 P0000 T10171022
KAFN 130012Z AUTO 00000KT 4SM -SN BR FEW008 OVC036 M02/M02 A2931 RMK AO2 P0000 T10171022
KAFN 130001Z AUTO 00000KT 5SM -SN BR BKN033 OVC042 M02/M02 A2931 RMK AO2 P0000 T10171022
KAFN 122352Z AUTO 00000KT 4SM -SN BR FEW015 BKN028 OVC042 M02/M02 A2932 RMK AO2 SLP943 P0004 60032 I6003 T10171022 11017 21022 58008
KAFN 122339Z AUTO 00000KT 2SM -SN BR OVC016 M02/M02 A2932 RMK AO2 P0004 T10171017
KAFN 122335Z AUTO 00000KT 1 3/4SM -SN BR FEW006 OVC014 M02/M02 A2932 RMK AO2 P0004 T10171022
KAFN 122330Z AUTO 00000KT 1 1/4SM -SN BR OVC012 M02/M02 A2932 RMK AO2 P0004 T10171017
KAFN 122324Z AUTO 00000KT 3/4SM -SN BR VV010 M02/M02 A2933 RMK AO2 P0004 T10171022
KAFN 122315Z AUTO 00000KT 1SM -SN BR FEW006 OVC011 M02/M02 A2933 RMK AO2 P0002 T10171022
KAFN 122308Z AUTO 00000KT 3/4SM -SN BR FEW006 OVC011 M02/M02 A2933 RMK AO2 P0002 T10171022
KAFN 122252Z AUTO VRB03KT 1SM -SN BR FEW006 OVC010 M02/M02 A2934 RMK AO2 FZRAE24SNB24 SLP953 P0008 I1002 T10171022
KAFN 122235Z AUTO 00000KT 1SM -SN BR VV006 M02/M02 A2935 RMK AO2 FZRAE24SNB24 P0006 I1002 T10171017
KAFN 122231Z AUTO 00000KT 1 3/4SM -SN BR OVC005 M02/M02 A2935 RMK AO2 VIS 1V4 FZRAE24SNB24 P0006 I1002 T10171017
KAFN 122227Z AUTO 00000KT 3SM -SN BR OVC005 M02/M02 A2935 RMK AO2 FZRAE24SNB24 P0005 I1002 T10171022
KAFN 122219Z AUTO 27008KT 4SM -FZRA BR OVC004 M02/M02 A2936 RMK AO2 P0003 I1002 T10171022
KAFN 122212Z AUTO 02005KT 3SM FZRA BR OVC004 M02/M02 A2933 RMK AO2 P0003 I1002 T10221022
KAFN 122152Z AUTO 36004KT 10SM -FZRA OVC004 M02/M03 A2934 RMK AO2 UPB16E40FZRAE16B40 SLP953 P0000 I1000 T10221028
KAFN 122122Z AUTO VRB05KT 10SM UP OVC004 M02/M03 A2936 RMK AO2 UPB16FZRAE16 P0000 I1000 T10221028
KAFN 122052Z AUTO VRB04KT 4SM -FZRA BR BKN004 OVC009 M02/M02 A2938 RMK AO2 UPB24E38FZRAB38SNE24 SLP966 P0003 60020 I1001 I3001 T10221022 58039
KAFN 122043Z AUTO VRB05KT 4SM -FZRA BR BKN004 OVC010 M02/M02 A2939 RMK AO2 UPB24E38FZRAB38SNE24 P0003 I1001 T10221022
KAFN 122017Z AUTO 01006KT 3SM -SN BR FEW005 OVC012 M02/M03 A2941 RMK AO2 P0001 T10221028
KAFN 122009Z AUTO 02004KT 1 3/4SM -SN BR FEW004 BKN014 OVC019 M02/M03 A2942 RMK AO2 P0001 T10221028
KAFN 122004Z AUTO VRB05KT 2SM -SN BR FEW004 OVC015 M02/M03 A2942 RMK AO2 P0001 T10221028
KAFN 121952Z AUTO VRB06KT 1 1/2SM -SN BR BKN013 OVC020 M02/M02 A2943 RMK AO2 SLP981 P0010 T10171022
KAFN 121942Z AUTO VRB04KT 1SM -SN BR OVC011 M02/M02 A2943 RMK AO2 PRESFR P0009 T10171022
KAFN 121852Z AUTO 02004KT 3/4SM -SN BR OVC006 M02/M02 A2946 RMK AO2 SLP991 P0007 T10171017
KAFN 121832Z AUTO VRB05KT 1/2SM SN FZFG OVC005 M01/M02 A2947 RMK AO2 P0004 T10111017
KAFN 121752Z AUTO VRB03KT 3/4SM -SN BR OVC008 M01/M02 A2950 RMK AO2 SLP005 P0003 60013 T10061017 11006 21022 56055
KAFN 121736Z AUTO 00000KT 3/4SM -SN BR OVC008 M01/M01 A2951 RMK AO2 P0002 T10061011
KAFN 121714Z AUTO VRB04KT 1SM -SN BR BKN009 OVC015 M01/M02 A2953 RMK AO2 P0001 T10061017
KAFN 121659Z AUTO VRB03KT 1 1/2SM -SN BR BKN009 OVC015 M01/M02 A2954 RMK AO2 CIG 007V011 P0000 T10061017
KAFN 121656Z AUTO 00000KT 1 1/4SM -SN BR BKN012 OVC018 M01/M02 A2954 RMK AO2 PRESFR P0000 T10111017
KAFN 121652Z AUTO VRB03KT 3/4SM -SN BR BKN009 OVC016 M01/M02 A2955 RMK AO2 CIG 007V013 PRESFR SLP022 P0003 T10111017
KAFN 121631Z AUTO VRB03KT 3/4SM -SN BR SCT008 BKN012 OVC025 M01/M02 A2957 RMK AO2 P0002 T10111017
KAFN 121621Z AUTO 00000KT 1SM -SN BR SCT008 SCT014 OVC024 M01/M02 A2958 RMK AO2 P0001 T10061017
KAFN 121552Z AUTO 00000KT 3/4SM -SN BR SCT008 BKN017 OVC030 M01/M01 A2961 RMK AO2 SLP043 P0004 T10061011
KAFN 121544Z AUTO 3/4SM -SN BR FEW008 BKN016 OVC029 M01/M02 A2962 RMK AO2 P0004 T10061017
KAFN 121539Z AUTO 00000KT 1SM -SN BR FEW008 BKN014 OVC031 M01/M02 A2962 RMK AO2 P0003 T10061017
KAFN 121452Z AUTO VRB06KT 1/2SM SN FZFG FEW008 OVC013 M01/M02 A2966 RMK AO2 SLP063 P0002 60003 T10111022 56034
KAFN 121442Z AUTO VRB03KT 1/2SM SN FZFG FEW008 OVC013 M02/M02 A2967 RMK AO2 P0002 T10171022
KAFN 121352Z AUTO VRB03KT 3/4SM -SN BR SCT007 OVC017 M02/M02 A2969 RMK AO2 SNE26B31 SLP073 P0001 T10171022
KAFN 121342Z AUTO VRB03KT 1SM -SN BR FEW008 OVC019 M02/M03 A2970 RMK AO2 SNE26B31 P0001 T10171028
KAFN 121338Z AUTO 11007KT 1 3/4SM -SN BR FEW008 BKN019 OVC028 M02/M03 A2970 RMK AO2 SNE26B31 P0001 T10171028
KAFN 121327Z AUTO VRB04KT 9SM FEW008 BKN019 OVC029 M02/M03 A2972 RMK AO2 SNE26 P0001 T10171033
KAFN 121318Z AUTO 11007KT 2SM -SN BR SCT017 BKN024 OVC029 M02/M03 A2972 RMK AO2 P0001 T10221033
KAFN 121306Z AUTO VRB04KT 1 1/4SM -SN BR SCT016 BKN021 OVC027 M02/M03 A2973 RMK AO2 P0001 T10221028
KAFN 121255Z AUTO 11004KT 3/4SM -SN BR FEW008 OVC016 M02/M03 A2973 RMK AO2 P0000 T10221028
KAFN 121252Z AUTO VRB03KT 1/2SM SN FZFG BKN014 OVC020 M02/M03 A2973 RMK AO2 SLP087 P0000 T10221028
KAFN 121246Z AUTO 00000KT 3/4SM -SN BR BKN016 OVC024 M02/M03 A2973 RMK AO2 P0000
KAFN 121242Z AUTO VRB04KT 1 1/4SM -SN BR BKN016 OVC032 M02/M03 A2974 RMK AO2 P0000 T10221033
KAFN 121239Z AUTO 14004KT 1 3/4SM -SN BR BKN014 OVC035 M02/M03 A2974 RMK AO2 P0000 T10221033
KAFN 121227Z AUTO 15004KT 3SM -SN BR FEW016 BKN027 OVC035 M02/M03 A2974 RMK AO2 P0000 T10221033
KAFN 121223Z AUTO VRB04KT 2 1/2SM -SN BR FEW021 SCT027 OVC035 M02/M03 A2974 RMK AO2 P0000 T10221033
KAFN 121152Z AUTO VRB03KT 3SM -SN BR BKN024 OVC029 M02/M03 A2977 RMK AO2 SLP100 P0001 60005 70005 T10221033 11022 21028 56020
KAFN 121139Z AUTO 12004KT 2SM -SN BR BKN024 OVC029 M02/M03 A2977 RMK AO2 P0001 T10221033
KAFN 121129Z AUTO 00000KT 1 1/4SM -SN BR OVC020 M02/M03 A2978 RMK AO2 P0001 T10221033
KAFN 121116Z AUTO 11003KT 2SM -SN BR OVC026 M02/M03 A2979 RMK AO2 P0000 T10221033
KAFN 121052Z AUTO VRB03KT 1 1/4SM -SN BR OVC015 M03/M03 A2980 RMK AO2 SLP111 P0003 T10281033
KAFN 121037Z AUTO VRB03KT 1 1/4SM -SN BR OVC015 M03/M03 A2981 RMK AO2 P0002 T10281033
KAFN 121028Z AUTO 00000KT 1SM -SN BR VV014 M03/M03 A2982 RMK AO2 P0002 T10281033
KAFN 121018Z AUTO 00000KT 1 1/4SM -SN BR OVC016 M03/M03 A2982 RMK AO2 P0001 T10281033
KAFN 121011Z AUTO 00000KT 1SM -SN BR VV016 M03/M04 A2982 RMK AO2 P0001 T10281039
KAFN 121000Z AUTO VRB03KT 1 1/4SM -SN BR OVC022 M03/M04 A2983 RMK AO2 P0001 T10281039
KAFN 120952Z AUTO 00000KT 2SM -SN BR OVC028 M03/M04 A2983 RMK AO2 SLP118 P0000 T10281039
KAFN 120936Z AUTO VRB03KT 5SM -SN BR OVC034 M03/M04 A2983 RMK AO2 P0000 T10281039
KAFN 120926Z AUTO 00000KT 2SM -SN BR OVC032 M03/M04 A2983 RMK AO2 P0000 T10281039
KAFN 120918Z AUTO 00000KT 1 1/2SM -SN BR OVC025 M03/M04 A2984 RMK AO2 P0000 T10281039
KAFN 120911Z AUTO 00000KT 1 1/4SM -SN BR OVC025 M03/M04 A2985 RMK AO2 P0000 T10281039
KAFN 120902Z AUTO 00000KT 1 1/2SM -SN BR OVC029 M03/M04 A2985 RMK AO2 P0000 T10281039
KAFN 120852Z AUTO 00000KT 2 1/2SM -SN BR OVC037 M03/M04 A2986 RMK AO2 SLP128 P0001 60001 T10281039 58016
KAFN 120825Z AUTO 00000KT 2 1/2SM -SN BR OVC031 M03/M04 A2987 RMK AO2 P0001 T10281044
KAFN 120805Z AUTO VRB03KT 1 1/2SM -SN BR OVC021 M03/M04 A2988 RMK AO2 P0000 T10281044
KAFN 120752Z AUTO VRB03KT 2SM -SN BR OVC025 M03/M04 A2989 RMK AO2 SLP140 P0000 T10281044
KAFN 120747Z AUTO VRB03KT 2SM -SN BR OVC025 M03/M04 A2990 RMK AO2 P0000
KAFN 120732Z AUTO 00000KT 1 3/4SM -SN BR OVC023 M03/M05 A2990 RMK AO2 P0000 T10281050
KAFN 120715Z AUTO 00000KT 2 1/2SM -SN OVC029 M03/M06 A2991 RMK AO2 P0000 T10281056
KAFN 120652Z AUTO VRB04KT 6SM -SN OVC041 M02/M06 A2991 RMK AO2 SNB35 SLP144 P0000 T10221061
KAFN 120552Z AUTO 00000KT 10SM BKN044 OVC070 M02/M07 A2991 RMK AO2 SLP146 T10221067 11022 21044 58016
KAFN 120452Z AUTO 00000KT 10SM FEW042 OVC085 M03/M06 A2993 RMK AO2 SLP154 T10281061 400061044
KAFN 120352Z AUTO 00000KT 10SM BKN045 M03/M06 A2995 RMK AO2 SLP158 T10331056
KAFN 120252Z AUTO 00000KT 10SM BKN095 M04/M06 A2996 RMK AO2 SLP164 T10391056 58002
KAFN 120152Z AUTO 00000KT 10SM OVC100 M04/M06 A2996 RMK AO2 SLP164 T10391056
KAFN 120052Z AUTO 00000KT 10SM CLR M04/M06 A2997 RMK AO2 SLP168 T10441061
KAFN 112352Z AUTO 17003KT 10SM CLR M04/M07 A2997 RMK AO2 SLP167 T10441067 10006 21044 50011
KAFN 112252Z AUTO 00000KT 10SM FEW046 M04/M08 A2997 RMK AO2 SLP167 T10441083
KAFN 112152Z AUTO VRB03KT 10SM FEW044 M01/M08 A2995 RMK AO2 SLP160 T10111078